sensor_id;sensor_type;location;lat;lon;timestamp;P1;durP1;ratioP1;P2;durP2;ratioP2
6834;SDS011;3455;42.150;24.734;2022-08-19T00:00:07;7.63;;;7.13;;
6834;SDS011;3455;42.150;24.734;2022-08-19T00:02:36;6.88;;;6.57;;
6834;SDS011;3455;42.150;24.734;2022-08-19T00:05:03;6.75;;;6.35;;
6834;SDS011;3455;42.150;24.734;2022-08-19T00:07:30;6.63;;;6.13;;
6834;SDS011;3455;42.150;24.734;2022-08-19T00:09:57;6.40;;;5.88;;
6834;SDS011;3455;42.150;24.734;2022-08-19T00:12:24;7.78;;;6.38;;
6834;SDS011;3455;42.150;24.734;2022-08-19T00:14:51;7.90;;;7.05;;
6834;SDS011;3455;42.150;24.734;2022-08-19T00:17:20;6.90;;;6.40;;
6834;SDS011;3455;42.150;24.734;2022-08-19T00:19:47;6.43;;;5.90;;
6834;SDS011;3455;42.150;24.734;2022-08-19T00:22:14;8.23;;;5.93;;
6834;SDS011;3455;42.150;24.734;2022-08-19T00:24:41;6.00;;;5.60;;
6834;SDS011;3455;42.150;24.734;2022-08-19T00:27:08;6.40;;;5.80;;
6834;SDS011;3455;42.150;24.734;2022-08-19T00:29:35;6.57;;;6.13;;
6834;SDS011;3455;42.150;24.734;2022-08-19T00:32:02;6.32;;;5.85;;
6834;SDS011;3455;42.150;24.734;2022-08-19T00:34:31;7.18;;;6.30;;
6834;SDS011;3455;42.150;24.734;2022-08-19T00:36:58;8.27;;;6.45;;
6834;SDS011;3455;42.150;24.734;2022-08-19T00:39:25;6.63;;;6.20;;
6834;SDS011;3455;42.150;24.734;2022-08-19T00:41:52;6.57;;;5.88;;
6834;SDS011;3455;42.150;24.734;2022-08-19T00:44:21;6.20;;;5.90;;
6834;SDS011;3455;42.150;24.734;2022-08-19T00:46:51;6.78;;;6.38;;
6834;SDS011;3455;42.150;24.734;2022-08-19T00:49:19;6.85;;;6.38;;
6834;SDS011;3455;42.150;24.734;2022-08-19T00:51:51;6.32;;;5.90;;
6834;SDS011;3455;42.150;24.734;2022-08-19T00:54:26;7.05;;;6.47;;
6834;SDS011;3455;42.150;24.734;2022-08-19T00:56:56;6.68;;;6.20;;
6834;SDS011;3455;42.150;24.734;2022-08-19T00:59:24;6.97;;;6.38;;
6834;SDS011;3455;42.150;24.734;2022-08-19T01:01:51;9.85;;;6.63;;
6834;SDS011;3455;42.150;24.734;2022-08-19T01:04:18;8.88;;;6.18;;
6834;SDS011;3455;42.150;24.734;2022-08-19T01:06:45;7.25;;;6.68;;
6834;SDS011;3455;42.150;24.734;2022-08-19T01:09:13;7.13;;;6.65;;
6834;SDS011;3455;42.150;24.734;2022-08-19T01:11:41;6.72;;;6.15;;
6834;SDS011;3455;42.150;24.734;2022-08-19T01:14:10;7.70;;;7.13;;
6834;SDS011;3455;42.150;24.734;2022-08-19T01:16:38;6.95;;;6.22;;
6834;SDS011;3455;42.150;24.734;2022-08-19T01:19:09;7.15;;;6.60;;
6834;SDS011;3455;42.150;24.734;2022-08-19T01:21:53;6.95;;;6.22;;
6834;SDS011;3455;42.150;24.734;2022-08-19T01:24:26;8.38;;;7.32;;
6834;SDS011;3455;42.150;24.734;2022-08-19T01:26:52;7.55;;;6.85;;
6834;SDS011;3455;42.150;24.734;2022-08-19T01:29:19;8.40;;;7.40;;
6834;SDS011;3455;42.150;24.734;2022-08-19T01:31:46;7.80;;;7.20;;
6834;SDS011;3455;42.150;24.734;2022-08-19T01:34:17;9.90;;;7.03;;
6834;SDS011;3455;42.150;24.734;2022-08-19T01:36:45;9.73;;;6.95;;
6834;SDS011;3455;42.150;24.734;2022-08-19T01:39:15;8.15;;;7.45;;
6834;SDS011;3455;42.150;24.734;2022-08-19T01:41:44;7.45;;;7.05;;
6834;SDS011;3455;42.150;24.734;2022-08-19T01:44:11;10.52;;;7.07;;
6834;SDS011;3455;42.150;24.734;2022-08-19T01:46:38;7.57;;;7.00;;
6834;SDS011;3455;42.150;24.734;2022-08-19T01:49:06;7.85;;;7.22;;
6834;SDS011;3455;42.150;24.734;2022-08-19T01:51:33;7.43;;;7.03;;
6834;SDS011;3455;42.150;24.734;2022-08-19T01:54:00;8.52;;;7.20;;
6834;SDS011;3455;42.150;24.734;2022-08-19T01:56:27;6.78;;;6.47;;
6834;SDS011;3455;42.150;24.734;2022-08-19T01:58:55;13.10;;;7.03;;
6834;SDS011;3455;42.150;24.734;2022-08-19T02:01:25;7.65;;;7.00;;
6834;SDS011;3455;42.150;24.734;2022-08-19T02:03:52;7.82;;;7.13;;
6834;SDS011;3455;42.150;24.734;2022-08-19T02:06:19;8.35;;;7.55;;
6834;SDS011;3455;42.150;24.734;2022-08-19T02:08:46;8.05;;;7.30;;
6834;SDS011;3455;42.150;24.734;2022-08-19T02:11:18;7.70;;;7.13;;
6834;SDS011;3455;42.150;24.734;2022-08-19T02:13:46;7.68;;;7.05;;
6834;SDS011;3455;42.150;24.734;2022-08-19T02:16:15;8.20;;;7.45;;
6834;SDS011;3455;42.150;24.734;2022-08-19T02:18:43;7.00;;;6.70;;
6834;SDS011;3455;42.150;24.734;2022-08-19T02:21:10;7.60;;;7.20;;
6834;SDS011;3455;42.150;24.734;2022-08-19T02:23:37;9.52;;;7.63;;
6834;SDS011;3455;42.150;24.734;2022-08-19T02:26:05;8.00;;;7.30;;
6834;SDS011;3455;42.150;24.734;2022-08-19T02:28:31;8.70;;;8.02;;
6834;SDS011;3455;42.150;24.734;2022-08-19T02:30:58;8.77;;;8.10;;
6834;SDS011;3455;42.150;24.734;2022-08-19T02:33:29;9.30;;;8.23;;
6834;SDS011;3455;42.150;24.734;2022-08-19T02:35:56;9.27;;;8.38;;
6834;SDS011;3455;42.150;24.734;2022-08-19T02:38:22;8.27;;;7.70;;
6834;SDS011;3455;42.150;24.734;2022-08-19T02:40:52;8.88;;;8.25;;
6834;SDS011;3455;42.150;24.734;2022-08-19T02:43:21;9.02;;;8.18;;
6834;SDS011;3455;42.150;24.734;2022-08-19T02:45:49;9.30;;;8.45;;
6834;SDS011;3455;42.150;24.734;2022-08-19T02:48:16;8.30;;;7.60;;
6834;SDS011;3455;42.150;24.734;2022-08-19T02:50:46;9.15;;;8.30;;
6834;SDS011;3455;42.150;24.734;2022-08-19T02:53:15;9.77;;;8.90;;
6834;SDS011;3455;42.150;24.734;2022-08-19T02:55:45;9.40;;;8.70;;
6834;SDS011;3455;42.150;24.734;2022-08-19T02:58:13;9.27;;;8.43;;
6834;SDS011;3455;42.150;24.734;2022-08-19T03:00:42;8.95;;;8.20;;
6834;SDS011;3455;42.150;24.734;2022-08-19T03:03:09;8.32;;;7.72;;
6834;SDS011;3455;42.150;24.734;2022-08-19T03:05:36;9.90;;;8.02;;
6834;SDS011;3455;42.150;24.734;2022-08-19T03:08:04;10.07;;;8.57;;
6834;SDS011;3455;42.150;24.734;2022-08-19T03:10:31;9.23;;;8.13;;
6834;SDS011;3455;42.150;24.734;2022-08-19T03:12:58;7.57;;;7.05;;
6834;SDS011;3455;42.150;24.734;2022-08-19T03:15:25;11.25;;;8.40;;
6834;SDS011;3455;42.150;24.734;2022-08-19T03:17:52;8.82;;;8.13;;
6834;SDS011;3455;42.150;24.734;2022-08-19T03:20:19;12.32;;;8.13;;
6834;SDS011;3455;42.150;24.734;2022-08-19T03:22:46;9.65;;;7.82;;
6834;SDS011;3455;42.150;24.734;2022-08-19T03:25:14;10.02;;;8.45;;
6834;SDS011;3455;42.150;24.734;2022-08-19T03:27:41;11.65;;;8.25;;
6834;SDS011;3455;42.150;24.734;2022-08-19T03:30:09;9.20;;;8.35;;
6834;SDS011;3455;42.150;24.734;2022-08-19T03:32:36;12.45;;;8.63;;
6834;SDS011;3455;42.150;24.734;2022-08-19T03:35:03;12.60;;;8.80;;
6834;SDS011;3455;42.150;24.734;2022-08-19T03:37:31;10.55;;;8.45;;
6834;SDS011;3455;42.150;24.734;2022-08-19T03:39:57;13.85;;;9.02;;
6834;SDS011;3455;42.150;24.734;2022-08-19T03:42:25;17.23;;;9.88;;
6834;SDS011;3455;42.150;24.734;2022-08-19T03:44:52;12.40;;;9.02;;
6834;SDS011;3455;42.150;24.734;2022-08-19T03:47:19;13.13;;;9.65;;
6834;SDS011;3455;42.150;24.734;2022-08-19T03:49:46;17.30;;;10.68;;
6834;SDS011;3455;42.150;24.734;2022-08-19T03:52:13;15.70;;;10.45;;
6834;SDS011;3455;42.150;24.734;2022-08-19T03:54:40;18.88;;;10.55;;
6834;SDS011;3455;42.150;24.734;2022-08-19T03:57:07;18.52;;;9.93;;
6834;SDS011;3455;42.150;24.734;2022-08-19T03:59:36;17.38;;;9.98;;
6834;SDS011;3455;42.150;24.734;2022-08-19T04:02:05;16.95;;;9.98;;
6834;SDS011;3455;42.150;24.734;2022-08-19T04:04:35;21.38;;;9.95;;
6834;SDS011;3455;42.150;24.734;2022-08-19T04:07:02;18.45;;;10.45;;
6834;SDS011;3455;42.150;24.734;2022-08-19T04:09:29;20.13;;;10.15;;
6834;SDS011;3455;42.150;24.734;2022-08-19T04:11:58;13.63;;;10.35;;
6834;SDS011;3455;42.150;24.734;2022-08-19T04:14:25;20.08;;;10.40;;
6834;SDS011;3455;42.150;24.734;2022-08-19T04:16:56;17.25;;;10.05;;
6834;SDS011;3455;42.150;24.734;2022-08-19T04:19:24;17.48;;;10.48;;
6834;SDS011;3455;42.150;24.734;2022-08-19T04:21:52;23.90;;;10.35;;
6834;SDS011;3455;42.150;24.734;2022-08-19T04:24:21;16.70;;;10.48;;
6834;SDS011;3455;42.150;24.734;2022-08-19T04:26:48;18.45;;;10.13;;
6834;SDS011;3455;42.150;24.734;2022-08-19T04:29:16;20.27;;;11.18;;
6834;SDS011;3455;42.150;24.734;2022-08-19T04:31:47;18.20;;;10.95;;
6834;SDS011;3455;42.150;24.734;2022-08-19T04:34:17;16.27;;;11.00;;
6834;SDS011;3455;42.150;24.734;2022-08-19T04:36:47;16.25;;;10.52;;
6834;SDS011;3455;42.150;24.734;2022-08-19T04:39:17;16.00;;;10.52;;
6834;SDS011;3455;42.150;24.734;2022-08-19T04:41:46;13.70;;;10.20;;
6834;SDS011;3455;42.150;24.734;2022-08-19T04:44:30;19.67;;;9.85;;
6834;SDS011;3455;42.150;24.734;2022-08-19T04:46:58;22.13;;;9.45;;
6834;SDS011;3455;42.150;24.734;2022-08-19T04:49:26;12.88;;;9.38;;
6834;SDS011;3455;42.150;24.734;2022-08-19T04:51:55;10.45;;;9.52;;
6834;SDS011;3455;42.150;24.734;2022-08-19T04:54:22;237.15;;;17.70;;
6834;SDS011;3455;42.150;24.734;2022-08-19T04:56:50;140.23;;;17.20;;
6834;SDS011;3455;42.150;24.734;2022-08-19T04:59:18;21.00;;;10.38;;
6834;SDS011;3455;42.150;24.734;2022-08-19T05:01:46;11.52;;;9.70;;
6834;SDS011;3455;42.150;24.734;2022-08-19T05:04:15;19.88;;;9.95;;
6834;SDS011;3455;42.150;24.734;2022-08-19T05:06:45;14.35;;;9.85;;
6834;SDS011;3455;42.150;24.734;2022-08-19T05:09:13;11.57;;;9.55;;
6834;SDS011;3455;42.150;24.734;2022-08-19T05:11:41;34.92;;;13.98;;
6834;SDS011;3455;42.150;24.734;2022-08-19T05:14:09;27.63;;;12.82;;
6834;SDS011;3455;42.150;24.734;2022-08-19T05:16:37;10.07;;;9.07;;
6834;SDS011;3455;42.150;24.734;2022-08-19T05:19:05;19.05;;;9.43;;
6834;SDS011;3455;42.150;24.734;2022-08-19T05:21:51;15.60;;;9.10;;
6834;SDS011;3455;42.150;24.734;2022-08-19T05:24:35;9.95;;;8.95;;
6834;SDS011;3455;42.150;24.734;2022-08-19T05:27:02;12.55;;;8.60;;
6834;SDS011;3455;42.150;24.734;2022-08-19T05:29:31;9.13;;;8.23;;
6834;SDS011;3455;42.150;24.734;2022-08-19T05:31:59;9.10;;;8.23;;
6834;SDS011;3455;42.150;24.734;2022-08-19T05:34:27;10.82;;;7.82;;
6834;SDS011;3455;42.150;24.734;2022-08-19T05:36:56;19.90;;;7.93;;
6834;SDS011;3455;42.150;24.734;2022-08-19T05:39:24;9.13;;;6.80;;
6834;SDS011;3455;42.150;24.734;2022-08-19T05:41:54;12.85;;;6.55;;
6834;SDS011;3455;42.150;24.734;2022-08-19T05:44:23;6.93;;;6.32;;
6834;SDS011;3455;42.150;24.734;2022-08-19T05:46:51;20.83;;;9.75;;
6834;SDS011;3455;42.150;24.734;2022-08-19T05:49:19;21.70;;;7.35;;
6834;SDS011;3455;42.150;24.734;2022-08-19T05:51:47;11.68;;;7.20;;
6834;SDS011;3455;42.150;24.734;2022-08-19T05:54:16;12.60;;;7.55;;
6834;SDS011;3455;42.150;24.734;2022-08-19T05:56:44;8.80;;;6.72;;
6834;SDS011;3455;42.150;24.734;2022-08-19T05:59:12;116.90;;;13.73;;
6834;SDS011;3455;42.150;24.734;2022-08-19T06:01:41;15.88;;;7.28;;
6834;SDS011;3455;42.150;24.734;2022-08-19T06:04:10;19.48;;;6.90;;
6834;SDS011;3455;42.150;24.734;2022-08-19T06:06:38;29.73;;;6.85;;
6834;SDS011;3455;42.150;24.734;2022-08-19T06:09:06;18.67;;;7.43;;
6834;SDS011;3455;42.150;24.734;2022-08-19T06:11:37;20.27;;;7.80;;
6834;SDS011;3455;42.150;24.734;2022-08-19T06:14:07;13.90;;;6.95;;
6834;SDS011;3455;42.150;24.734;2022-08-19T06:16:37;21.83;;;7.03;;
6834;SDS011;3455;42.150;24.734;2022-08-19T06:19:05;15.18;;;7.28;;
6834;SDS011;3455;42.150;24.734;2022-08-19T06:21:34;15.15;;;7.68;;
6834;SDS011;3455;42.150;24.734;2022-08-19T06:24:03;7.35;;;6.72;;
6834;SDS011;3455;42.150;24.734;2022-08-19T06:26:31;7.88;;;6.93;;
6834;SDS011;3455;42.150;24.734;2022-08-19T06:29:00;10.48;;;7.10;;
6834;SDS011;3455;42.150;24.734;2022-08-19T06:31:28;7.88;;;6.22;;
6834;SDS011;3455;42.150;24.734;2022-08-19T06:33:56;6.10;;;5.80;;
6834;SDS011;3455;42.150;24.734;2022-08-19T06:36:24;38.25;;;8.38;;
6834;SDS011;3455;42.150;24.734;2022-08-19T06:38:56;9.30;;;5.75;;
6834;SDS011;3455;42.150;24.734;2022-08-19T06:41:23;7.13;;;6.13;;
6834;SDS011;3455;42.150;24.734;2022-08-19T06:43:50;6.18;;;5.60;;
6834;SDS011;3455;42.150;24.734;2022-08-19T06:46:19;8.40;;;6.18;;
6834;SDS011;3455;42.150;24.734;2022-08-19T06:48:47;6.85;;;6.25;;
6834;SDS011;3455;42.150;24.734;2022-08-19T06:51:14;9.50;;;6.07;;
6834;SDS011;3455;42.150;24.734;2022-08-19T06:53:43;7.80;;;6.00;;
6834;SDS011;3455;42.150;24.734;2022-08-19T06:56:12;29.60;;;7.50;;
6834;SDS011;3455;42.150;24.734;2022-08-19T06:58:40;12.70;;;7.38;;
6834;SDS011;3455;42.150;24.734;2022-08-19T07:01:07;17.88;;;6.88;;
6834;SDS011;3455;42.150;24.734;2022-08-19T07:03:36;13.95;;;7.30;;
6834;SDS011;3455;42.150;24.734;2022-08-19T07:06:04;8.10;;;6.95;;
6834;SDS011;3455;42.150;24.734;2022-08-19T07:08:33;129.30;;;15.40;;
6834;SDS011;3455;42.150;24.734;2022-08-19T07:11:01;7.50;;;6.07;;
6834;SDS011;3455;42.150;24.734;2022-08-19T07:13:28;10.05;;;5.82;;
6834;SDS011;3455;42.150;24.734;2022-08-19T07:16:02;9.00;;;6.50;;
6834;SDS011;3455;42.150;24.734;2022-08-19T07:18:30;21.60;;;7.07;;
6834;SDS011;3455;42.150;24.734;2022-08-19T07:21:03;5.47;;;4.80;;
6834;SDS011;3455;42.150;24.734;2022-08-19T07:23:30;7.35;;;5.25;;
6834;SDS011;3455;42.150;24.734;2022-08-19T07:25:57;13.00;;;5.20;;
6834;SDS011;3455;42.150;24.734;2022-08-19T07:28:30;7.65;;;4.53;;
6834;SDS011;3455;42.150;24.734;2022-08-19T07:30:56;6.43;;;5.00;;
6834;SDS011;3455;42.150;24.734;2022-08-19T07:33:23;9.35;;;4.95;;
6834;SDS011;3455;42.150;24.734;2022-08-19T07:35:51;7.60;;;4.47;;
6834;SDS011;3455;42.150;24.734;2022-08-19T07:38:21;5.32;;;4.75;;
6834;SDS011;3455;42.150;24.734;2022-08-19T07:40:48;6.15;;;4.68;;
6834;SDS011;3455;42.150;24.734;2022-08-19T07:43:16;5.07;;;4.13;;
6834;SDS011;3455;42.150;24.734;2022-08-19T07:45:45;12.55;;;4.65;;
6834;SDS011;3455;42.150;24.734;2022-08-19T07:48:12;5.40;;;4.90;;
6834;SDS011;3455;42.150;24.734;2022-08-19T07:50:39;5.55;;;5.05;;
6834;SDS011;3455;42.150;24.734;2022-08-19T07:53:06;16.35;;;5.45;;
6834;SDS011;3455;42.150;24.734;2022-08-19T07:55:34;8.77;;;5.13;;
6834;SDS011;3455;42.150;24.734;2022-08-19T07:58:01;5.55;;;5.05;;
6834;SDS011;3455;42.150;24.734;2022-08-19T08:00:29;5.18;;;4.88;;
6834;SDS011;3455;42.150;24.734;2022-08-19T08:02:56;20.98;;;6.18;;
6834;SDS011;3455;42.150;24.734;2022-08-19T08:05:23;11.52;;;5.47;;
6834;SDS011;3455;42.150;24.734;2022-08-19T08:08:22;6.13;;;5.57;;
6834;SDS011;3455;42.150;24.734;2022-08-19T08:11:08;8.15;;;5.43;;
6834;SDS011;3455;42.150;24.734;2022-08-19T08:13:36;8.90;;;6.22;;
6834;SDS011;3455;42.150;24.734;2022-08-19T08:16:03;6.13;;;5.43;;
6834;SDS011;3455;42.150;24.734;2022-08-19T08:18:30;5.80;;;5.30;;
6834;SDS011;3455;42.150;24.734;2022-08-19T08:20:57;6.75;;;5.18;;
6834;SDS011;3455;42.150;24.734;2022-08-19T08:23:24;65.30;;;8.32;;
6834;SDS011;3455;42.150;24.734;2022-08-19T08:25:52;19.02;;;5.88;;
6834;SDS011;3455;42.150;24.734;2022-08-19T08:28:22;42.08;;;7.53;;
6834;SDS011;3455;42.150;24.734;2022-08-19T08:30:49;52.42;;;10.73;;
6834;SDS011;3455;42.150;24.734;2022-08-19T08:33:17;12.80;;;5.38;;
6834;SDS011;3455;42.150;24.734;2022-08-19T08:35:46;16.02;;;7.72;;
6834;SDS011;3455;42.150;24.734;2022-08-19T08:38:14;25.95;;;8.38;;
6834;SDS011;3455;42.150;24.734;2022-08-19T08:40:44;11.02;;;5.32;;
6834;SDS011;3455;42.150;24.734;2022-08-19T08:43:19;11.00;;;5.20;;
6834;SDS011;3455;42.150;24.734;2022-08-19T08:45:53;119.95;;;10.15;;
6834;SDS011;3455;42.150;24.734;2022-08-19T08:48:31;30.77;;;6.30;;
6834;SDS011;3455;42.150;24.734;2022-08-19T08:51:05;6.00;;;5.07;;
6834;SDS011;3455;42.150;24.734;2022-08-19T08:53:37;6.20;;;5.25;;
6834;SDS011;3455;42.150;24.734;2022-08-19T08:56:06;5.72;;;5.18;;
6834;SDS011;3455;42.150;24.734;2022-08-19T08:58:42;6.80;;;5.82;;
6834;SDS011;3455;42.150;24.734;2022-08-19T09:01:16;7.00;;;5.50;;
6834;SDS011;3455;42.150;24.734;2022-08-19T09:03:44;6.97;;;5.40;;
6834;SDS011;3455;42.150;24.734;2022-08-19T09:06:14;5.40;;;4.85;;
6834;SDS011;3455;42.150;24.734;2022-08-19T09:08:48;7.47;;;5.30;;
6834;SDS011;3455;42.150;24.734;2022-08-19T09:11:23;5.35;;;4.63;;
6834;SDS011;3455;42.150;24.734;2022-08-19T09:14:05;5.85;;;5.20;;
6834;SDS011;3455;42.150;24.734;2022-08-19T09:16:41;5.35;;;4.90;;
6834;SDS011;3455;42.150;24.734;2022-08-19T09:19:08;5.30;;;4.90;;
6834;SDS011;3455;42.150;24.734;2022-08-19T09:21:36;5.57;;;5.05;;
6834;SDS011;3455;42.150;24.734;2022-08-19T09:24:04;16.83;;;5.38;;
6834;SDS011;3455;42.150;24.734;2022-08-19T09:26:31;4.78;;;4.38;;
6834;SDS011;3455;42.150;24.734;2022-08-19T09:28:59;8.63;;;4.68;;
6834;SDS011;3455;42.150;24.734;2022-08-19T09:31:28;5.70;;;4.85;;
6834;SDS011;3455;42.150;24.734;2022-08-19T09:33:57;5.70;;;4.60;;
6834;SDS011;3455;42.150;24.734;2022-08-19T09:36:27;5.07;;;4.57;;
6834;SDS011;3455;42.150;24.734;2022-08-19T09:38:57;5.38;;;4.85;;
6834;SDS011;3455;42.150;24.734;2022-08-19T09:41:25;5.65;;;5.10;;
6834;SDS011;3455;42.150;24.734;2022-08-19T09:43:53;5.40;;;5.00;;
6834;SDS011;3455;42.150;24.734;2022-08-19T09:46:23;145.83;;;15.40;;
6834;SDS011;3455;42.150;24.734;2022-08-19T09:48:53;5.28;;;4.90;;
6834;SDS011;3455;42.150;24.734;2022-08-19T09:51:20;7.78;;;5.00;;
6834;SDS011;3455;42.150;24.734;2022-08-19T09:53:49;5.50;;;5.00;;
6834;SDS011;3455;42.150;24.734;2022-08-19T09:56:19;11.73;;;5.65;;
6834;SDS011;3455;42.150;24.734;2022-08-19T09:58:47;5.50;;;5.00;;
6834;SDS011;3455;42.150;24.734;2022-08-19T10:01:18;4.88;;;4.28;;
6834;SDS011;3455;42.150;24.734;2022-08-19T10:03:47;11.20;;;4.85;;
6834;SDS011;3455;42.150;24.734;2022-08-19T10:06:17;5.38;;;4.93;;
6834;SDS011;3455;42.150;24.734;2022-08-19T10:08:45;5.10;;;3.83;;
6834;SDS011;3455;42.150;24.734;2022-08-19T10:11:12;6.88;;;4.90;;
6834;SDS011;3455;42.150;24.734;2022-08-19T10:13:42;4.93;;;4.35;;
6834;SDS011;3455;42.150;24.734;2022-08-19T10:16:10;4.97;;;4.50;;
6834;SDS011;3455;42.150;24.734;2022-08-19T10:18:39;5.55;;;4.80;;
6834;SDS011;3455;42.150;24.734;2022-08-19T10:21:07;4.50;;;4.10;;
6834;SDS011;3455;42.150;24.734;2022-08-19T10:23:37;5.15;;;4.50;;
6834;SDS011;3455;42.150;24.734;2022-08-19T10:26:05;6.30;;;4.60;;
6834;SDS011;3455;42.150;24.734;2022-08-19T10:28:33;4.63;;;4.32;;
6834;SDS011;3455;42.150;24.734;2022-08-19T10:31:05;5.25;;;4.85;;
6834;SDS011;3455;42.150;24.734;2022-08-19T10:33:33;4.85;;;4.57;;
6834;SDS011;3455;42.150;24.734;2022-08-19T10:36:01;5.18;;;4.15;;
6834;SDS011;3455;42.150;24.734;2022-08-19T10:38:29;6.00;;;4.32;;
6834;SDS011;3455;42.150;24.734;2022-08-19T10:40:57;4.93;;;4.28;;
6834;SDS011;3455;42.150;24.734;2022-08-19T10:43:24;4.43;;;4.03;;
6834;SDS011;3455;42.150;24.734;2022-08-19T10:45:52;7.03;;;4.55;;
6834;SDS011;3455;42.150;24.734;2022-08-19T10:48:20;4.35;;;4.05;;
6834;SDS011;3455;42.150;24.734;2022-08-19T10:50:46;4.80;;;4.50;;
6834;SDS011;3455;42.150;24.734;2022-08-19T10:53:31;5.22;;;4.13;;
6834;SDS011;3455;42.150;24.734;2022-08-19T10:55:59;4.60;;;4.25;;
6834;SDS011;3455;42.150;24.734;2022-08-19T10:58:43;6.13;;;4.25;;
6834;SDS011;3455;42.150;24.734;2022-08-19T11:01:10;5.85;;;4.85;;
6834;SDS011;3455;42.150;24.734;2022-08-19T11:03:36;5.05;;;4.85;;
6834;SDS011;3455;42.150;24.734;2022-08-19T11:06:05;4.68;;;4.38;;
6834;SDS011;3455;42.150;24.734;2022-08-19T11:08:34;4.88;;;4.35;;
6834;SDS011;3455;42.150;24.734;2022-08-19T11:11:04;4.05;;;3.65;;
6834;SDS011;3455;42.150;24.734;2022-08-19T11:13:33;3.67;;;3.38;;
6834;SDS011;3455;42.150;24.734;2022-08-19T11:16:03;3.55;;;3.35;;
6834;SDS011;3455;42.150;24.734;2022-08-19T11:18:33;4.65;;;4.10;;
6834;SDS011;3455;42.150;24.734;2022-08-19T11:21:08;3.78;;;3.47;;
6834;SDS011;3455;42.150;24.734;2022-08-19T11:23:37;4.60;;;3.40;;
6834;SDS011;3455;42.150;24.734;2022-08-19T11:26:05;4.20;;;3.80;;
6834;SDS011;3455;42.150;24.734;2022-08-19T11:28:32;8.30;;;4.30;;
6834;SDS011;3455;42.150;24.734;2022-08-19T11:30:59;3.85;;;3.67;;
6834;SDS011;3455;42.150;24.734;2022-08-19T11:33:27;3.80;;;3.55;;
6834;SDS011;3455;42.150;24.734;2022-08-19T11:35:56;4.88;;;4.18;;
6834;SDS011;3455;42.150;24.734;2022-08-19T11:38:23;4.40;;;4.10;;
6834;SDS011;3455;42.150;24.734;2022-08-19T11:40:54;4.25;;;3.90;;
6834;SDS011;3455;42.150;24.734;2022-08-19T11:43:25;9.88;;;4.85;;
6834;SDS011;3455;42.150;24.734;2022-08-19T11:45:52;4.40;;;4.00;;
6834;SDS011;3455;42.150;24.734;2022-08-19T11:48:19;3.88;;;3.58;;
6834;SDS011;3455;42.150;24.734;2022-08-19T11:50:47;3.72;;;3.40;;
6834;SDS011;3455;42.150;24.734;2022-08-19T11:53:14;4.15;;;3.95;;
6834;SDS011;3455;42.150;24.734;2022-08-19T11:55:43;5.85;;;3.90;;
6834;SDS011;3455;42.150;24.734;2022-08-19T11:58:10;4.15;;;3.95;;
6834;SDS011;3455;42.150;24.734;2022-08-19T12:00:39;3.80;;;3.42;;
6834;SDS011;3455;42.150;24.734;2022-08-19T12:03:06;5.00;;;4.40;;
6834;SDS011;3455;42.150;24.734;2022-08-19T12:05:36;4.20;;;4.03;;
6834;SDS011;3455;42.150;24.734;2022-08-19T12:08:03;4.25;;;3.95;;
6834;SDS011;3455;42.150;24.734;2022-08-19T12:10:30;4.28;;;3.90;;
6834;SDS011;3455;42.150;24.734;2022-08-19T12:12:57;6.03;;;4.10;;
6834;SDS011;3455;42.150;24.734;2022-08-19T12:15:24;4.50;;;4.00;;
6834;SDS011;3455;42.150;24.734;2022-08-19T12:17:54;4.70;;;3.67;;
6834;SDS011;3455;42.150;24.734;2022-08-19T12:20:22;4.55;;;4.00;;
6834;SDS011;3455;42.150;24.734;2022-08-19T12:22:51;4.22;;;4.00;;
6834;SDS011;3455;42.150;24.734;2022-08-19T12:25:18;3.88;;;3.70;;
6834;SDS011;3455;42.150;24.734;2022-08-19T12:27:45;3.95;;;3.65;;
6834;SDS011;3455;42.150;24.734;2022-08-19T12:30:13;4.40;;;4.20;;
6834;SDS011;3455;42.150;24.734;2022-08-19T12:32:40;5.57;;;4.13;;
6834;SDS011;3455;42.150;24.734;2022-08-19T12:35:08;4.40;;;4.20;;
6834;SDS011;3455;42.150;24.734;2022-08-19T12:37:36;4.90;;;4.50;;
6834;SDS011;3455;42.150;24.734;2022-08-19T12:40:04;12.60;;;4.72;;
6834;SDS011;3455;42.150;24.734;2022-08-19T12:42:31;4.97;;;4.68;;
6834;SDS011;3455;42.150;24.734;2022-08-19T12:44:58;4.32;;;4.03;;
6834;SDS011;3455;42.150;24.734;2022-08-19T12:47:25;4.95;;;4.65;;
6834;SDS011;3455;42.150;24.734;2022-08-19T12:49:52;8.25;;;4.43;;
6834;SDS011;3455;42.150;24.734;2022-08-19T12:52:20;5.82;;;3.78;;
6834;SDS011;3455;42.150;24.734;2022-08-19T12:54:48;5.15;;;4.65;;
6834;SDS011;3455;42.150;24.734;2022-08-19T12:57:15;4.15;;;3.90;;
6834;SDS011;3455;42.150;24.734;2022-08-19T12:59:42;3.72;;;3.50;;
6834;SDS011;3455;42.150;24.734;2022-08-19T13:02:09;4.43;;;4.15;;
6834;SDS011;3455;42.150;24.734;2022-08-19T13:04:36;4.20;;;3.90;;
6834;SDS011;3455;42.150;24.734;2022-08-19T13:07:06;4.50;;;4.10;;
6834;SDS011;3455;42.150;24.734;2022-08-19T13:09:35;18.27;;;4.95;;
6834;SDS011;3455;42.150;24.734;2022-08-19T13:12:02;21.60;;;5.80;;
6834;SDS011;3455;42.150;24.734;2022-08-19T13:14:32;4.45;;;4.10;;
6834;SDS011;3455;42.150;24.734;2022-08-19T13:17:00;4.30;;;3.97;;
6834;SDS011;3455;42.150;24.734;2022-08-19T13:19:27;4.32;;;4.13;;
6834;SDS011;3455;42.150;24.734;2022-08-19T13:21:55;4.30;;;4.07;;
6834;SDS011;3455;42.150;24.734;2022-08-19T13:24:23;6.85;;;4.10;;
6834;SDS011;3455;42.150;24.734;2022-08-19T13:26:51;7.22;;;4.40;;
6834;SDS011;3455;42.150;24.734;2022-08-19T13:29:17;4.45;;;4.07;;
6834;SDS011;3455;42.150;24.734;2022-08-19T13:32:01;4.50;;;4.18;;
6834;SDS011;3455;42.150;24.734;2022-08-19T13:34:46;4.03;;;3.78;;
6834;SDS011;3455;42.150;24.734;2022-08-19T13:37:12;4.38;;;4.15;;
6834;SDS011;3455;42.150;24.734;2022-08-19T13:39:39;5.78;;;4.13;;
6834;SDS011;3455;42.150;24.734;2022-08-19T13:42:07;4.57;;;4.28;;
6834;SDS011;3455;42.150;24.734;2022-08-19T13:44:35;4.50;;;4.30;;
6834;SDS011;3455;42.150;24.734;2022-08-19T13:47:03;4.43;;;4.22;;
6834;SDS011;3455;42.150;24.734;2022-08-19T13:49:31;4.75;;;4.30;;
6834;SDS011;3455;42.150;24.734;2022-08-19T13:51:58;8.88;;;4.68;;
6834;SDS011;3455;42.150;24.734;2022-08-19T13:54:25;4.75;;;4.35;;
6834;SDS011;3455;42.150;24.734;2022-08-19T13:56:53;4.10;;;3.67;;
6834;SDS011;3455;42.150;24.734;2022-08-19T13:59:21;4.55;;;4.35;;
6834;SDS011;3455;42.150;24.734;2022-08-19T14:01:47;3.88;;;3.58;;
6834;SDS011;3455;42.150;24.734;2022-08-19T14:04:15;4.40;;;4.13;;
6834;SDS011;3455;42.150;24.734;2022-08-19T14:06:41;9.15;;;4.20;;
6834;SDS011;3455;42.150;24.734;2022-08-19T14:09:08;4.07;;;3.88;;
6834;SDS011;3455;42.150;24.734;2022-08-19T14:11:35;7.03;;;4.78;;
6834;SDS011;3455;42.150;24.734;2022-08-19T14:14:02;3.72;;;3.53;;
6834;SDS011;3455;42.150;24.734;2022-08-19T14:16:30;5.35;;;4.47;;
6834;SDS011;3455;42.150;24.734;2022-08-19T14:18:57;4.90;;;3.92;;
6834;SDS011;3455;42.150;24.734;2022-08-19T14:21:24;6.30;;;4.35;;
6834;SDS011;3455;42.150;24.734;2022-08-19T14:23:51;4.47;;;4.03;;
6834;SDS011;3455;42.150;24.734;2022-08-19T14:26:19;5.13;;;4.72;;
6834;SDS011;3455;42.150;24.734;2022-08-19T14:28:47;4.63;;;4.40;;
6834;SDS011;3455;42.150;24.734;2022-08-19T14:31:15;16.85;;;5.32;;
6834;SDS011;3455;42.150;24.734;2022-08-19T14:33:46;10.48;;;5.05;;
6834;SDS011;3455;42.150;24.734;2022-08-19T14:36:13;7.65;;;4.97;;
6834;SDS011;3455;42.150;24.734;2022-08-19T14:38:57;5.45;;;5.05;;
6834;SDS011;3455;42.150;24.734;2022-08-19T14:41:25;4.93;;;4.47;;
6834;SDS011;3455;42.150;24.734;2022-08-19T14:43:53;4.13;;;3.92;;
6834;SDS011;3455;42.150;24.734;2022-08-19T14:46:21;15.25;;;11.63;;
6834;SDS011;3455;42.150;24.734;2022-08-19T14:48:51;6.35;;;5.78;;
6834;SDS011;3455;42.150;24.734;2022-08-19T14:51:19;14.43;;;5.85;;
6834;SDS011;3455;42.150;24.734;2022-08-19T14:53:51;5.53;;;5.22;;
6834;SDS011;3455;42.150;24.734;2022-08-19T14:56:19;10.77;;;5.32;;
6834;SDS011;3455;42.150;24.734;2022-08-19T14:58:47;9.90;;;9.00;;
6834;SDS011;3455;42.150;24.734;2022-08-19T15:01:16;5.20;;;4.68;;
6834;SDS011;3455;42.150;24.734;2022-08-19T15:03:45;6.00;;;4.65;;